Time;durP1;ratioP1;P1;durP2;ratioP2;P2;SDS_P1;SDS_P2;PMS_P1;PMS_P2;Temp;Humidity;BMP_temperature;BMP_pressure;BME280_temperature;BME280_humidity;BME280_pressure;Samples;Min_cycle;Max_cycle;Signal;HPM_P1;HPM_P2
2022/11/03 00:01:12;;;;;;;4.82;1.58;;;14.20;99.90;;;;;;5028788;28;20228;-68
2022/11/03 00:03:38;;;;;;;7.30;1.70;;;14.20;99.90;;;;;;5034138;28;20178;-69
2022/11/03 00:06:04;;;;;;;5.28;1.52;;;14.10;99.90;;;;;;5012710;28;20189;-68
2022/11/03 00:08:41;;;;;;;3.10;1.50;;;14.10;99.90;;;;;;5033728;28;20190;-67
2022/11/03 00:11:12;;;;;;;3.95;1.45;;;14.20;99.90;;;;;;5034291;28;20487;-68
2022/11/03 00:13:41;;;;;;;7.85;1.92;;;14.20;99.90;;;;;;5035098;28;20179;-68
2022/11/03 00:16:11;;;;;;;3.08;2.00;;;14.20;99.90;;;;;;5025721;28;20237;-66
2022/11/03 00:18:38;;;;;;;4.38;1.85;;;14.20;99.90;;;;;;5015931;28;20584;-67
2022/11/03 00:21:04;;;;;;;6.78;1.73;;;14.20;99.90;;;;;;5033305;28;20245;-67
2022/11/03 00:23:36;;;;;;;7.07;1.92;;;14.20;99.90;;;;;;5031502;28;20193;-69
2022/11/03 00:26:12;;;;;;;14.77;2.30;;;14.20;99.90;;;;;;5032228;28;20713;-68
2022/11/03 00:28:42;;;;;;;2.13;1.88;;;14.30;99.90;;;;;;5014528;28;20206;-67
2022/11/03 00:31:17;;;;;;;8.60;1.88;;;14.20;99.90;;;;;;5014779;28;20186;-68
2022/11/03 00:33:44;;;;;;;4.85;1.40;;;14.20;99.90;;;;;;5039376;28;20228;-68
2022/11/03 00:36:16;;;;;;;8.93;2.17;;;14.20;99.90;;;;;;5031390;28;20225;-70
2022/11/03 00:38:42;;;;;;;1.73;1.15;;;14.30;99.90;;;;;;5031000;28;20299;-69
2022/11/03 00:41:09;;;;;;;4.85;1.65;;;14.20;99.90;;;;;;5013834;28;20198;-67
2022/11/03 00:43:36;;;;;;;7.75;1.63;;;14.20;99.90;;;;;;5025477;28;20229;-67
2022/11/03 00:46:04;;;;;;;4.38;1.60;;;14.20;99.90;;;;;;5030798;28;20257;-67
2022/11/03 00:48:33;;;;;;;5.30;1.42;;;14.30;99.90;;;;;;5031605;28;20179;-68
2022/11/03 00:51:08;;;;;;;5.10;2.00;;;14.30;99.90;;;;;;5033925;28;20678;-67
2022/11/03 00:53:42;;;;;;;10.40;2.45;;;14.20;99.90;;;;;;5032643;28;20184;-68
2022/11/03 00:56:19;;;;;;;4.78;1.25;;;14.20;99.90;;;;;;5023471;28;20186;-68
2022/11/03 00:58:45;;;;;;;4.70;1.75;;;14.20;99.90;;;;;;5033362;28;20545;-67
2022/11/03 01:01:23;;;;;;;8.30;1.40;;;14.20;99.90;;;;;;5030111;28;20184;-68
2022/11/03 01:06:49;;;;;;;2.60;1.13;;;14.30;99.90;;;;;;5033610;28;20209;-67
2022/11/03 01:09:18;;;;;;;5.97;3.30;;;14.20;99.90;;;;;;5030636;28;20190;-69
2022/11/03 01:11:54;;;;;;;5.55;1.88;;;14.20;99.90;;;;;;5026812;28;20242;-69
2022/11/03 01:14:20;;;;;;;10.90;2.17;;;14.10;99.90;;;;;;5035845;28;20193;-68
2022/11/03 01:16:46;;;;;;;5.70;2.70;;;14.10;99.90;;;;;;5016890;28;20182;-68
2022/11/03 01:19:11;;;;;;;8.05;1.73;;;14.20;99.90;;;;;;5034304;28;20207;-67
2022/11/03 01:21:37;;;;;;;4.38;1.70;;;14.20;99.90;;;;;;5029989;28;20190;-68
2022/11/03 01:24:03;;;;;;;5.88;1.95;;;14.20;99.90;;;;;;5019235;28;20211;-67
2022/11/03 01:26:30;;;;;;;9.57;1.88;;;14.20;99.90;;;;;;5012320;28;20178;-67
2022/11/03 01:28:58;;;;;;;3.55;1.00;;;14.20;99.90;;;;;;5034261;28;20245;-68
2022/11/03 01:31:25;;;;;;;7.47;1.80;;;14.10;99.90;;;;;;5026140;28;20596;-68
2022/11/03 01:33:52;;;;;;;5.60;2.80;;;14.10;99.90;;;;;;5025002;28;20245;-67
2022/11/03 01:36:19;;;;;;;7.65;2.13;;;14.20;99.90;;;;;;5000632;28;20218;-67
2022/11/03 01:38:45;;;;;;;7.78;1.83;;;14.20;99.90;;;;;;5009036;28;20202;-68
2022/11/03 01:41:17;;;;;;;7.28;2.08;;;14.10;99.90;;;;;;5029681;28;20206;-66
2022/11/03 01:43:44;;;;;;;2.95;1.77;;;14.20;99.90;;;;;;5028666;28;20654;-67
2022/11/03 01:46:23;;;;;;;7.53;1.90;;;14.20;99.90;;;;;;5006167;28;20179;-67
2022/11/03 01:48:59;;;;;;;10.25;1.98;;;14.20;99.90;;;;;;5031978;28;20187;-68
2022/11/03 01:51:29;;;;;;;3.28;1.65;;;14.30;99.90;;;;;;5015268;28;20187;-67
2022/11/03 01:53:58;;;;;;;6.10;1.77;;;14.20;99.90;;;;;;5032922;28;20202;-68
2022/11/03 01:56:24;;;;;;;4.15;1.88;;;14.20;99.90;;;;;;5032965;28;20179;-68
2022/11/03 01:58:53;;;;;;;3.70;1.67;;;14.20;99.90;;;;;;5018659;28;20644;-68
2022/11/03 02:01:19;;;;;;;2.83;1.45;;;14.20;99.90;;;;;;5022337;28;20186;-67
2022/11/03 02:03:58;;;;;;;6.20;2.05;;;14.20;99.90;;;;;;5029262;28;20202;-68
2022/11/03 02:06:27;;;;;;;3.15;1.20;;;14.20;99.90;;;;;;5024097;28;20175;-68
2022/11/03 02:09:05;;;;;;;3.95;1.45;;;14.20;99.90;;;;;;5024143;28;20578;-67
2022/11/03 02:14:42;;;;;;;3.13;1.60;;;14.20;99.90;;;;;;5010303;28;20198;-67
2022/11/03 02:17:11;;;;;;;5.68;2.15;;;14.20;99.90;;;;;;5020310;28;20683;-67
2022/11/03 02:20:03;;;;;;;4.07;1.88;;;14.20;99.90;;;;;;5015352;28;20799;-67
2022/11/03 02:22:37;;;;;;;6.47;1.63;;;14.20;99.90;;;;;;5031339;28;20187;-68
2022/11/03 02:25:31;;;;;;;2.75;1.60;;;14.30;99.90;;;;;;5033283;28;20543;-67
2022/11/03 02:27:57;;;;;;;5.82;2.55;;;14.20;99.90;;;;;;5027836;28;20236;-68
2022/11/03 02:30:23;;;;;;;4.65;2.08;;;14.20;99.90;;;;;;5033224;28;20588;-67
2022/11/03 02:33:08;;;;;;;6.30;2.22;;;14.30;99.90;;;;;;5032011;28;20221;-68
2022/11/03 02:36:04;;;;;;;4.70;1.65;;;14.30;99.90;;;;;;5021091;28;20648;-66
2022/11/03 02:38:32;;;;;;;3.22;1.13;;;14.30;99.90;;;;;;5022161;28;20215;-68
2022/11/03 02:41:02;;;;;;;7.13;1.90;;;14.30;99.90;;;;;;5021618;28;20241;-68
2022/11/03 02:43:28;;;;;;;3.92;2.08;;;14.30;99.90;;;;;;5023785;28;20191;-68
2022/11/03 02:45:55;;;;;;;7.90;1.88;;;14.20;99.90;;;;;;5022863;28;20191;-67
2022/11/03 02:48:21;;;;;;;4.57;1.73;;;14.20;99.90;;;;;;5015355;28;20245;-68
2022/11/03 02:50:50;;;;;;;3.25;1.80;;;14.30;99.90;;;;;;5031472;28;20215;-67
2022/11/03 02:53:16;;;;;;;5.43;1.30;;;14.20;99.90;;;;;;5033124;28;20224;-68
2022/11/03 02:55:51;;;;;;;8.98;1.77;;;14.20;99.90;;;;;;5021329;28;20541;-68
2022/11/03 02:58:59;;;;;;;6.28;1.95;;;14.30;99.90;;;;;;5031367;28;20206;-67
2022/11/03 03:01:47;;;;;;;5.32;2.22;;;14.20;99.90;;;;;;4943863;28;20201;-68
2022/11/03 03:04:28;;;;;;;2.63;1.48;;;14.20;99.90;;;;;;4968633;28;20189;-67
2022/11/03 03:07:01;;;;;;;1.75;1.58;;;14.20;99.90;;;;;;5008979;28;20194;-67
2022/11/03 03:09:55;;;;;;;1.42;1.20;;;14.20;99.90;;;;;;5020317;28;20193;-68
2022/11/03 03:12:21;;;;;;;5.05;1.35;;;14.20;99.90;;;;;;5023900;28;20186;-67
2022/11/03 03:14:50;;;;;;;4.68;1.85;;;14.30;99.90;;;;;;5021422;28;20190;-66
2022/11/03 03:17:24;;;;;;;7.13;2.22;;;14.20;99.90;;;;;;5025302;28;20178;-67
2022/11/03 03:20:02;;;;;;;1.45;1.42;;;14.30;99.90;;;;;;5027107;28;20214;-67
2022/11/03 03:22:50;;;;;;;3.20;1.45;;;14.30;99.90;;;;;;5025320;28;20179;-66
2022/11/03 03:25:33;;;;;;;3.78;1.83;;;14.30;99.90;;;;;;5028761;28;20197;-66
2022/11/03 03:28:16;;;;;;;2.63;1.52;;;14.20;99.90;;;;;;5029984;28;20198;-66
2022/11/03 03:30:44;;;;;;;4.00;2.03;;;14.30;99.90;;;;;;5031962;28;20193;-68
2022/11/03 03:33:10;;;;;;;3.15;2.13;;;14.20;99.90;;;;;;5032476;28;20198;-66
2022/11/03 03:35:39;;;;;;;4.95;1.73;;;14.30;99.90;;;;;;5032447;28;20260;-66
2022/11/03 03:38:13;;;;;;;5.18;2.50;;;14.30;99.90;;;;;;5027189;28;20290;-67
2022/11/03 03:40:42;;;;;;;5.18;2.22;;;14.30;99.90;;;;;;5034508;28;20536;-66
2022/11/03 03:43:10;;;;;;;5.47;1.85;;;14.30;99.90;;;;;;5025944;28;20174;-67
2022/11/03 03:45:37;;;;;;;3.40;1.42;;;14.30;99.90;;;;;;5037123;28;20178;-67
2022/11/03 03:48:05;;;;;;;2.92;1.77;;;14.20;99.90;;;;;;5038483;28;20193;-66
2022/11/03 03:50:36;;;;;;;3.55;1.70;;;14.30;99.90;;;;;;5028098;28;20183;-67
2022/11/03 03:53:10;;;;;;;7.95;2.70;;;14.30;99.90;;;;;;5037465;28;20283;-67
2022/11/03 03:55:41;;;;;;;3.95;2.20;;;14.30;99.90;;;;;;5038481;28;20178;-67
2022/11/03 03:58:12;;;;;;;2.53;2.30;;;14.30;99.90;;;;;;5029975;28;20664;-65
2022/11/03 04:00:39;;;;;;;10.63;2.28;;;14.30;99.90;;;;;;5026534;28;20186;-67
2022/11/03 04:03:05;;;;;;;4.85;2.15;;;14.30;99.90;;;;;;5029939;28;20203;-67
2022/11/03 04:05:31;;;;;;;9.05;4.00;;;14.30;99.90;;;;;;5032430;28;20644;-67
2022/11/03 04:07:57;;;;;;;6.28;2.20;;;14.30;99.90;;;;;;5034367;28;20199;-67
2022/11/03 04:10:23;;;;;;;3.08;1.65;;;14.30;99.90;;;;;;5034253;28;20708;-67
2022/11/03 04:23:49;;;;;;;6.45;2.40;;;14.20;99.90;;;;;;5038452;28;20198;-67
2022/11/03 04:26:18;;;;;;;5.07;2.22;;;14.10;99.90;;;;;;5038249;28;20647;-66
2022/11/03 04:28:44;;;;;;;6.15;2.95;;;14.10;99.90;;;;;;5038506;28;20209;-66
2022/11/03 04:31:15;;;;;;;3.45;1.88;;;14.10;99.90;;;;;;5038569;28;20282;-67
2022/11/03 04:33:41;;;;;;;4.63;2.40;;;14.10;99.90;;;;;;5024859;28;20186;-67
2022/11/03 04:36:13;;;;;;;12.35;3.35;;;14.10;99.90;;;;;;5031616;28;20210;-67
2022/11/03 04:38:39;;;;;;;4.53;2.13;;;14.10;99.90;;;;;;5038208;28;20212;-66
2022/11/03 04:41:14;;;;;;;5.57;2.08;;;14.10;99.90;;;;;;5026666;28;20576;-66
2022/11/03 04:43:40;;;;;;;5.72;1.85;;;14.20;99.90;;;;;;5032349;28;20175;-66
2022/11/03 04:46:10;;;;;;;4.45;1.70;;;14.10;99.90;;;;;;5025929;28;20234;-67
2022/11/03 04:48:35;;;;;;;2.15;1.45;;;14.10;99.90;;;;;;5035393;28;20186;-66
2022/11/03 04:51:13;;;;;;;5.57;1.60;;;14.10;99.90;;;;;;5028922;28;20189;-67
2022/11/03 04:54:02;;;;;;;6.93;2.22;;;14.10;99.90;;;;;;5034977;28;20178;-67
2022/11/03 04:56:29;;;;;;;7.68;1.95;;;14.10;99.90;;;;;;5030631;28;20655;-67
2022/11/03 04:58:56;;;;;;;4.35;1.73;;;14.10;99.90;;;;;;5017544;28;20221;-67
2022/11/03 05:01:23;;;;;;;5.70;2.47;;;14.10;99.90;;;;;;5031382;28;20551;-65
2022/11/03 05:03:53;;;;;;;3.22;2.15;;;14.10;99.90;;;;;;5032847;28;20197;-66
2022/11/03 05:06:22;;;;;;;8.23;2.05;;;14.20;99.90;;;;;;5033120;28;20183;-66
2022/11/03 05:08:51;;;;;;;8.77;2.30;;;14.20;99.90;;;;;;5031632;28;20187;-66
2022/11/03 05:11:33;;;;;;;5.43;1.75;;;14.10;99.90;;;;;;5034763;28;20186;-67
2022/11/03 05:14:03;;;;;;;2.70;1.77;;;14.10;99.90;;;;;;5033484;28;20179;-67
2022/11/03 05:16:29;;;;;;;5.15;2.45;;;14.10;99.90;;;;;;5021594;28;20201;-66
2022/11/03 05:18:55;;;;;;;7.65;2.92;;;14.20;99.90;;;;;;5009396;28;20222;-67
2022/11/03 05:21:25;;;;;;;6.35;2.42;;;14.20;99.90;;;;;;5033032;28;20187;-67
2022/11/03 05:24:05;;;;;;;5.25;2.30;;;14.10;99.90;;;;;;5027456;28;20189;-67
2022/11/03 05:26:34;;;;;;;3.45;1.88;;;14.20;99.90;;;;;;5031650;28;20634;-66
2022/11/03 05:29:03;;;;;;;4.05;1.40;;;14.20;99.90;;;;;;5024973;28;20192;-67
2022/11/03 05:31:33;;;;;;;9.30;2.70;;;14.20;99.90;;;;;;5028608;28;20186;-67
2022/11/03 05:34:15;;;;;;;6.30;2.28;;;14.20;99.90;;;;;;5033565;28;20627;-66
2022/11/03 05:36:40;;;;;;;3.97;2.08;;;14.20;99.90;;;;;;5023414;28;20182;-67
2022/11/03 05:39:33;;;;;;;4.47;2.38;;;14.20;99.90;;;;;;5022736;28;20222;-66
2022/11/03 05:41:59;;;;;;;3.42;1.92;;;14.20;99.90;;;;;;5029977;28;20245;-66
2022/11/03 05:44:35;;;;;;;1.92;1.58;;;14.20;99.90;;;;;;5015507;28;20187;-66
2022/11/03 05:47:24;;;;;;;6.50;3.20;;;14.20;99.90;;;;;;5030167;28;20543;-67
2022/11/03 05:49:55;;;;;;;5.07;2.80;;;14.10;99.90;;;;;;5006076;28;20293;-67
2022/11/03 05:52:23;;;;;;;5.40;2.33;;;14.10;99.90;;;;;;5023184;28;20550;-67
2022/11/03 05:54:50;;;;;;;7.82;2.00;;;14.00;99.90;;;;;;5020936;28;20539;-67
2022/11/03 05:57:17;;;;;;;7.45;2.50;;;14.00;99.90;;;;;;5032353;28;20197;-66
2022/11/03 05:59:46;;;;;;;4.68;2.13;;;14.10;99.90;;;;;;5034411;28;20218;-67
2022/11/03 06:02:41;;;;;;;6.68;3.88;;;14.10;99.90;;;;;;5020445;28;20615;-66
2022/11/03 06:05:33;;;;;;;6.07;3.17;;;14.10;99.90;;;;;;5014216;28;20207;-67
2022/11/03 06:08:16;;;;;;;6.78;2.33;;;14.20;99.90;;;;;;5031840;28;20277;-67
2022/11/03 06:10:47;;;;;;;6.85;2.75;;;14.10;99.90;;;;;;5033630;28;20313;-66
2022/11/03 06:13:19;;;;;;;7.68;2.50;;;14.10;99.90;;;;;;5032236;28;20190;-67
2022/11/03 06:15:46;;;;;;;5.40;2.60;;;14.10;99.90;;;;;;5032620;28;20195;-67
2022/11/03 06:18:35;;;;;;;5.68;2.13;;;14.10;99.90;;;;;;5033185;28;20219;-66
2022/11/03 06:21:24;;;;;;;6.28;2.28;;;14.10;99.90;;;;;;5024275;28;20206;-67
2022/11/03 06:23:52;;;;;;;9.13;2.55;;;14.10;99.90;;;;;;5028453;28;20206;-67
2022/11/03 06:26:23;;;;;;;2.45;2.15;;;14.20;99.90;;;;;;5028070;28;20196;-67
2022/11/03 06:28:49;;;;;;;4.95;1.90;;;14.20;99.90;;;;;;5030381;28;20678;-67
2022/11/03 06:31:29;;;;;;;3.90;2.58;;;14.20;99.90;;;;;;5021304;28;20191;-67
2022/11/03 06:33:56;;;;;;;7.50;2.42;;;14.20;99.90;;;;;;5033134;28;20186;-67
2022/11/03 06:36:26;;;;;;;6.85;2.97;;;14.20;99.90;;;;;;5031308;28;20287;-67
2022/11/03 06:38:56;;;;;;;4.75;2.28;;;14.20;99.90;;;;;;5027053;28;20671;-67
2022/11/03 06:41:28;;;;;;;7.90;2.58;;;14.30;99.90;;;;;;5019724;28;20593;-67
2022/11/03 06:43:54;;;;;;;4.35;2.72;;;14.30;99.90;;;;;;5020568;28;20202;-67
2022/11/03 06:46:25;;;;;;;7.22;2.58;;;14.20;99.90;;;;;;5020351;28;20194;-68
2022/11/03 06:48:57;;;;;;;2.15;1.95;;;14.30;99.90;;;;;;5022575;28;20187;-68
2022/11/03 06:51:27;;;;;;;4.75;2.58;;;14.30;99.90;;;;;;5016610;28;20194;-68
2022/11/03 06:53:56;;;;;;;5.25;2.80;;;14.30;99.90;;;;;;5020195;28;20635;-67
2022/11/03 06:56:26;;;;;;;4.53;2.03;;;14.30;99.90;;;;;;5028570;28;20180;-67
2022/11/03 06:58:53;;;;;;;5.28;3.15;;;14.30;99.90;;;;;;5028874;28;20792;-67
2022/11/03 07:01:25;;;;;;;10.18;2.40;;;14.30;99.90;;;;;;5024634;28;20232;-67
2022/11/03 07:03:57;;;;;;;7.88;2.50;;;14.20;99.90;;;;;;5032122;28;20187;-68
2022/11/03 07:06:28;;;;;;;5.30;3.90;;;14.10;99.90;;;;;;5032827;28;20639;-68
2022/11/03 07:08:57;;;;;;;7.57;2.95;;;14.20;99.90;;;;;;5027718;28;20269;-68
2022/11/03 07:11:50;;;;;;;7.75;2.63;;;14.20;99.90;;;;;;5021991;28;20639;-66
2022/11/03 07:14:21;;;;;;;5.30;2.50;;;14.20;99.90;;;;;;5027588;28;20190;-67
2022/11/03 07:16:52;;;;;;;4.90;1.92;;;14.20;99.90;;;;;;5031439;28;20171;-66
2022/11/03 07:19:35;;;;;;;4.90;1.70;;;14.20;99.90;;;;;;5031893;28;20686;-68
2022/11/03 07:22:20;;;;;;;4.90;1.95;;;14.10;99.90;;;;;;5021036;28;20201;-70
2022/11/03 07:24:48;;;;;;;7.00;3.63;;;14.20;99.90;;;;;;5028936;28;20542;-66
2022/11/03 07:27:29;;;;;;;7.78;3.72;;;14.10;99.90;;;;;;5016710;28;20241;-68
2022/11/03 07:30:05;;;;;;;7.40;4.07;;;14.10;99.90;;;;;;5023255;28;20205;-69
2022/11/03 07:32:33;;;;;;;8.68;3.03;;;14.10;99.90;;;;;;5015665;28;20214;-68
2022/11/03 07:35:17;;;;;;;8.65;2.03;;;14.30;99.90;;;;;;5026314;28;20217;-68
2022/11/03 07:37:49;;;;;;;4.35;2.38;;;14.20;99.90;;;;;;5018721;28;20182;-67
2022/11/03 07:40:17;;;;;;;11.65;2.75;;;14.30;99.90;;;;;;5028420;28;20198;-68
2022/11/03 07:42:43;;;;;;;7.43;2.78;;;14.30;99.90;;;;;;5030934;28;20687;-68
2022/11/03 07:45:34;;;;;;;4.60;3.03;;;14.30;99.90;;;;;;5028538;28;20285;-69
2022/11/03 07:48:22;;;;;;;21.52;5.88;;;14.30;99.90;;;;;;5029764;28;20190;-69
2022/11/03 07:50:53;;;;;;;11.43;4.65;;;14.40;99.90;;;;;;5027624;28;20254;-67
2022/11/03 07:53:21;;;;;;;6.57;3.35;;;14.30;99.90;;;;;;5026217;28;20182;-68
2022/11/03 07:55:47;;;;;;;3.50;2.42;;;14.30;99.90;;;;;;5029506;28;20182;-69
2022/11/03 07:58:26;;;;;;;3.42;2.72;;;14.20;99.90;;;;;;5028145;28;20222;-68
2022/11/03 08:00:56;;;;;;;4.38;2.65;;;14.20;99.90;;;;;;5023190;28;20231;-69
2022/11/03 08:03:47;;;;;;;7.43;2.60;;;14.30;99.90;;;;;;5019460;28;20190;-68
2022/11/03 08:06:13;;;;;;;5.63;2.15;;;14.40;99.90;;;;;;5017980;28;20557;-70
2022/11/03 08:08:39;;;;;;;3.80;2.00;;;14.30;99.90;;;;;;5019210;28;20206;-69
2022/11/03 08:11:05;;;;;;;5.30;2.90;;;14.40;99.90;;;;;;5008423;28;20178;-72
2022/11/03 08:13:31;;;;;;;5.15;2.45;;;14.50;99.90;;;;;;5028162;28;20187;-70
2022/11/03 08:15:57;;;;;;;3.72;3.08;;;14.50;99.90;;;;;;5019498;28;20236;-69
2022/11/03 08:18:23;;;;;;;4.25;2.42;;;14.50;99.90;;;;;;5026356;28;20279;-68
2022/11/03 08:20:49;;;;;;;5.93;2.35;;;14.40;99.90;;;;;;5032007;28;20219;-67
2022/11/03 08:23:15;;;;;;;6.53;3.10;;;14.50;99.90;;;;;;5029401;28;20289;-67
2022/11/03 08:25:41;;;;;;;6.95;2.90;;;14.50;99.90;;;;;;5007022;28;20184;-68
2022/11/03 08:28:07;;;;;;;6.68;2.05;;;14.60;99.90;;;;;;5019871;28;20191;-67
2022/11/03 08:30:33;;;;;;;4.78;1.75;;;14.60;99.90;;;;;;5026382;28;20207;-68
2022/11/03 08:32:59;;;;;;;5.68;1.73;;;14.50;99.90;;;;;;5031713;28;20190;-69
2022/11/03 08:35:25;;;;;;;4.03;2.53;;;14.50;99.90;;;;;;5029772;28;20190;-68
2022/11/03 08:37:51;;;;;;;2.58;1.50;;;14.50;99.90;;;;;;5025738;28;20179;-67
2022/11/03 08:40:17;;;;;;;5.85;2.90;;;14.50;99.90;;;;;;5029648;28;20278;-66
2022/11/03 08:42:43;;;;;;;4.18;2.30;;;14.50;99.90;;;;;;5032848;28;20190;-67
2022/11/03 08:45:10;;;;;;;2.40;1.70;;;14.60;99.90;;;;;;5033106;28;20193;-67
2022/11/03 08:47:36;;;;;;;6.50;2.03;;;14.60;99.90;;;;;;5032389;28;20546;-66
2022/11/03 08:50:03;;;;;;;5.07;2.15;;;14.60;99.90;;;;;;5016166;28;20190;-69
2022/11/03 08:52:28;;;;;;;4.45;1.63;;;14.50;99.90;;;;;;5024976;28;20190;-67
2022/11/03 08:54:54;;;;;;;3.35;1.80;;;14.60;99.90;;;;;;5032737;28;20190;-67
2022/11/03 08:57:20;;;;;;;6.40;1.73;;;14.60;99.90;;;;;;5007893;28;20241;-68
2022/11/03 08:59:45;;;;;;;6.97;1.85;;;14.50;99.90;;;;;;5014139;28;20218;-67
2022/11/03 09:02:11;;;;;;;4.70;2.53;;;14.50;99.90;;;;;;5013093;28;20248;-69
2022/11/03 09:04:37;;;;;;;3.88;1.80;;;14.60;99.90;;;;;;4988326;28;20290;-67
2022/11/03 09:07:02;;;;;;;4.78;1.67;;;14.70;99.90;;;;;;5029059;28;20183;-69
2022/11/03 09:09:29;;;;;;;4.32;1.73;;;14.60;99.90;;;;;;5031619;28;20198;-68
2022/11/03 09:11:54;;;;;;;2.78;2.05;;;14.60;99.90;;;;;;5024536;28;20245;-70
2022/11/03 09:14:20;;;;;;;4.93;1.45;;;14.60;99.90;;;;;;5031717;28;20194;-69
2022/11/03 09:16:45;;;;;;;5.93;3.08;;;14.50;99.90;;;;;;5015086;28;20179;-68
2022/11/03 09:19:11;;;;;;;3.55;2.42;;;14.50;99.90;;;;;;5026825;28;20301;-68
2022/11/03 09:21:37;;;;;;;5.57;1.95;;;14.50;99.90;;;;;;5034006;28;20198;-69
2022/11/03 09:24:03;;;;;;;5.05;2.05;;;14.50;99.90;;;;;;5031510;28;20206;-69
2022/11/03 09:26:28;;;;;;;5.50;2.03;;;14.50;99.90;;;;;;5018821;28;20707;-69
2022/11/03 09:28:54;;;;;;;3.95;1.70;;;14.60;99.90;;;;;;5033245;28;20239;-68
2022/11/03 09:31:20;;;;;;;3.72;2.47;;;14.70;99.90;;;;;;5026534;28;20190;-68
2022/11/03 09:33:45;;;;;;;5.22;3.47;;;14.90;99.90;;;;;;5020050;28;20551;-69
2022/11/03 09:36:11;;;;;;;2.80;2.20;;;15.10;99.90;;;;;;5019880;28;20512;-67
2022/11/03 09:38:36;;;;;;;6.07;1.60;;;15.10;99.90;;;;;;5007251;28;20214;-69
2022/11/03 09:41:04;;;;;;;5.43;2.13;;;15.20;99.90;;;;;;5009992;28;20192;-68
2022/11/03 09:43:31;;;;;;;10.10;2.00;;;15.40;99.90;;;;;;5016079;28;20651;-69
2022/11/03 09:45:58;;;;;;;6.07;2.75;;;15.50;99.90;;;;;;5028348;28;20265;-68
2022/11/03 09:48:24;;;;;;;2.75;1.85;;;15.60;99.90;;;;;;5022016;28;20198;-68
2022/11/03 09:50:53;;;;;;;5.53;1.73;;;15.80;99.90;;;;;;5025086;28;20644;-69
2022/11/03 09:53:19;;;;;;;4.13;2.63;;;15.80;99.90;;;;;;5008625;28;20195;-68
2022/11/03 09:55:45;;;;;;;2.80;1.48;;;15.90;99.90;;;;;;5029196;28;20194;-70
2022/11/03 09:58:16;;;;;;;4.63;1.85;;;15.90;99.90;;;;;;5010231;28;20186;-69
2022/11/03 10:00:42;;;;;;;6.22;1.85;;;15.80;99.90;;;;;;5023334;28;20226;-69
2022/11/03 10:03:13;;;;;;;5.32;1.85;;;15.70;99.90;;;;;;5028598;28;20193;-69
2022/11/03 10:05:39;;;;;;;6.15;2.03;;;15.80;99.90;;;;;;5021863;28;20192;-67
2022/11/03 10:08:14;;;;;;;3.47;1.80;;;15.90;99.90;;;;;;5012427;28;20194;-68
2022/11/03 10:10:40;;;;;;;5.30;2.05;;;15.80;99.90;;;;;;5028600;28;20240;-68
2022/11/03 10:13:12;;;;;;;6.65;1.70;;;15.80;99.90;;;;;;5029228;28;20183;-64
2022/11/03 10:15:38;;;;;;;3.53;2.03;;;15.90;99.90;;;;;;5026909;28;20240;-67
2022/11/03 10:18:06;;;;;;;6.30;2.20;;;15.90;99.90;;;;;;4991651;28;20613;-67
2022/11/03 10:20:32;;;;;;;3.95;1.70;;;16.00;99.90;;;;;;5029595;28;20290;-67
2022/11/03 10:22:57;;;;;;;2.55;1.88;;;16.10;99.90;;;;;;5026019;28;20222;-67
2022/11/03 10:25:33;;;;;;;1.90;1.67;;;16.10;99.90;;;;;;5011970;28;20253;-69
2022/11/03 10:28:15;;;;;;;5.45;1.60;;;16.00;99.90;;;;;;5020497;28;20261;-68
2022/11/03 10:30:50;;;;;;;2.20;1.90;;;16.10;99.90;;;;;;5019554;28;20659;-67
2022/11/03 10:33:53;;;;;;;2.53;2.00;;;16.10;99.90;;;;;;5026024;28;20197;-68
2022/11/03 10:36:19;;;;;;;7.00;1.92;;;16.00;99.90;;;;;;5004060;28;20682;-69
2022/11/03 10:38:46;;;;;;;5.88;2.22;;;15.90;99.90;;;;;;5026944;28;20218;-64
2022/11/03 10:41:12;;;;;;;2.08;1.50;;;15.90;99.90;;;;;;5025345;28;20186;-67
2022/11/03 10:43:39;;;;;;;3.55;1.58;;;15.90;99.90;;;;;;5020894;28;20555;-69
2022/11/03 10:46:18;;;;;;;1.88;1.40;;;15.90;99.90;;;;;;5014080;28;20198;-67
2022/11/03 10:48:59;;;;;;;3.22;1.80;;;15.90;99.90;;;;;;5027792;28;20185;-66
2022/11/03 10:51:25;;;;;;;3.05;1.60;;;16.00;99.90;;;;;;5026883;28;20662;-68
2022/11/03 10:53:51;;;;;;;2.50;1.60;;;16.20;99.90;;;;;;5018251;28;20191;-68
2022/11/03 10:56:16;;;;;;;4.22;1.77;;;16.30;99.90;;;;;;5022444;28;20186;-68
2022/11/03 10:58:42;;;;;;;3.00;1.52;;;16.30;99.90;;;;;;5019335;28;20214;-64
2022/11/03 11:01:09;;;;;;;2.50;1.65;;;16.30;99.90;;;;;;5019956;28;20217;-68
2022/11/03 11:03:40;;;;;;;4.85;2.25;;;16.40;99.90;;;;;;5023259;28;20193;-70
2022/11/03 11:06:18;;;;;;;6.82;2.53;;;16.40;99.90;;;;;;5028530;28;20190;-70
2022/11/03 11:08:43;;;;;;;4.13;1.55;;;16.70;99.90;;;;;;5026125;28;20576;-69
2022/11/03 11:11:17;;;;;;;3.60;2.17;;;16.70;99.90;;;;;;5007534;28;20187;-68
2022/11/03 11:13:43;;;;;;;1.95;1.25;;;16.70;99.90;;;;;;5016981;28;20191;-66
2022/11/03 11:17:00;;;;;;;1.42;1.30;;;16.70;99.90;;;;;;5023292;28;20669;-71
2022/11/03 11:19:28;;;;;;;4.85;1.63;;;16.70;99.90;;;;;;5008835;28;20226;-70
2022/11/03 11:21:53;;;;;;;2.75;1.73;;;16.70;99.90;;;;;;5025885;28;20313;-70
2022/11/03 11:24:44;;;;;;;1.40;1.23;;;16.70;99.90;;;;;;5021330;28;20269;-69
2022/11/03 11:27:31;;;;;;;6.70;1.90;;;16.70;99.90;;;;;;5020182;28;20257;-68
2022/11/03 11:30:04;;;;;;;5.93;1.80;;;16.80;99.90;;;;;;5030222;28;20561;-69
2022/11/03 11:32:45;;;;;;;2.53;1.67;;;16.70;99.90;;;;;;5023111;28;20535;-68
2022/11/03 11:35:21;;;;;;;4.07;1.92;;;16.80;99.90;;;;;;5022633;28;20190;-69
2022/11/03 11:37:47;;;;;;;1.38;1.20;;;16.80;99.90;;;;;;5014732;28;20258;-69
2022/11/03 11:40:15;;;;;;;1.75;1.50;;;16.80;99.90;;;;;;4999848;28;20306;-69
2022/11/03 11:43:19;;;;;;;1.45;1.35;;;17.10;99.90;;;;;;5025659;28;20273;-69
2022/11/03 11:46:22;;;;;;;4.53;1.63;;;17.10;99.90;;;;;;5004833;28;20746;-69
2022/11/03 11:49:03;;;;;;;1.48;1.30;;;17.10;99.90;;;;;;5015926;28;20465;-65
2022/11/03 11:51:33;;;;;;;2.42;1.30;;;17.10;99.90;;;;;;5019267;28;20195;-67
2022/11/03 11:54:03;;;;;;;2.67;1.15;;;17.10;99.90;;;;;;5027397;28;20260;-69
2022/11/03 11:56:29;;;;;;;6.38;1.45;;;17.20;99.90;;;;;;5028386;28;20562;-68
2022/11/03 11:58:55;;;;;;;7.82;1.40;;;17.40;99.90;;;;;;5029170;28;20215;-68
2022/11/03 12:01:33;;;;;;;2.83;1.55;;;17.60;99.90;;;;;;5034759;28;20198;-67
2022/11/03 12:04:19;;;;;;;3.03;2.15;;;17.50;99.90;;;;;;5021879;28;20187;-67
2022/11/03 12:06:45;;;;;;;1.15;1.05;;;17.40;99.90;;;;;;5018631;28;20282;-68
2022/11/03 12:09:26;;;;;;;2.92;1.70;;;17.40;99.90;;;;;;5027147;28;20639;-69
2022/11/03 12:11:58;;;;;;;1.73;1.40;;;17.30;99.90;;;;;;5030379;28;20682;-69
2022/11/03 12:14:39;;;;;;;3.63;1.67;;;17.40;99.90;;;;;;5027662;28;20175;-69
2022/11/03 12:17:17;;;;;;;1.40;1.30;;;17.50;99.90;;;;;;5031876;28;20183;-68
2022/11/03 12:19:46;;;;;;;2.58;1.48;;;17.50;99.90;;;;;;5032815;28;20263;-68
2022/11/03 12:22:27;;;;;;;4.97;1.38;;;17.50;99.90;;;;;;5034941;28;20186;-68
2022/11/03 12:25:05;;;;;;;5.18;1.52;;;17.70;99.90;;;;;;5017532;28;20206;-69
2022/11/03 12:27:32;;;;;;;3.53;1.45;;;17.70;99.90;;;;;;5018382;28;20205;-68
2022/11/03 12:30:04;;;;;;;2.85;1.27;;;17.60;99.90;;;;;;5022457;28;20191;-68
2022/11/03 12:32:31;;;;;;;2.47;1.67;;;17.40;99.90;;;;;;5017807;28;20667;-69
2022/11/03 12:34:57;;;;;;;1.80;1.40;;;17.40;99.90;;;;;;5015089;28;20192;-68
2022/11/03 12:37:22;;;;;;;5.75;1.70;;;17.40;99.90;;;;;;5037977;28;20187;-69
2022/11/03 12:39:48;;;;;;;2.38;1.48;;;17.30;99.90;;;;;;5031569;28;20227;-69
2022/11/03 12:42:14;;;;;;;1.90;1.60;;;17.30;99.90;;;;;;5032870;28;20182;-69
2022/11/03 12:44:39;;;;;;;1.40;1.27;;;17.10;99.90;;;;;;5027696;28;20190;-68
2022/11/03 12:47:05;;;;;;;4.20;1.70;;;17.00;99.90;;;;;;5011906;28;20560;-69
2022/11/03 12:49:31;;;;;;;2.85;1.73;;;16.80;99.90;;;;;;5034087;28;20666;-68
2022/11/03 12:52:04;;;;;;;4.72;2.33;;;16.60;99.90;;;;;;5033551;28;20278;-68
2022/11/03 12:54:30;;;;;;;4.68;1.60;;;16.40;99.90;;;;;;5018977;28;20191;-69
2022/11/03 12:56:56;;;;;;;3.65;2.42;;;16.40;99.90;;;;;;5034346;28;20712;-67
2022/11/03 12:59:21;;;;;;;3.42;1.42;;;16.10;99.90;;;;;;5031518;28;20276;-68
2022/11/03 13:01:47;;;;;;;2.17;1.65;;;15.80;99.90;;;;;;5033327;28;20273;-68
2022/11/03 13:04:13;;;;;;;1.48;1.40;;;15.80;99.90;;;;;;5029655;28;20242;-67
2022/11/03 13:06:38;;;;;;;2.80;1.33;;;15.50;99.90;;;;;;4999974;28;20253;-67
2022/11/03 13:09:04;;;;;;;3.95;2.20;;;15.40;99.90;;;;;;5034517;28;20550;-67
2022/11/03 13:14:14;;;;;;;2.13;1.90;;;15.50;99.90;;;;;;5033174;28;20186;-67
2022/11/03 13:16:40;;;;;;;3.58;2.25;;;15.50;99.90;;;;;;5029236;28;20184;-67
2022/11/03 13:19:05;;;;;;;2.85;2.17;;;15.40;99.90;;;;;;5021896;28;20222;-68
2022/11/03 13:21:31;;;;;;;3.70;1.92;;;15.40;99.90;;;;;;5048133;28;20190;-67
2022/11/03 13:23:56;;;;;;;4.40;1.80;;;15.40;99.90;;;;;;5034471;28;20221;-67
2022/11/03 13:26:22;;;;;;;2.55;1.70;;;15.40;99.90;;;;;;5027728;28;20591;-67